sensor_id;sensor_type;location;lat;lon;timestamp;temperature;humidity
15765;DHT22;7983;50.744;7.086;2023-05-19T00:01:15;12.30;99.90
15765;DHT22;7983;50.744;7.086;2023-05-19T00:03:54;12.30;99.90
15765;DHT22;7983;50.744;7.086;2023-05-19T00:06:27;12.30;99.90
15765;DHT22;7983;50.744;7.086;2023-05-19T00:09:01;12.30;99.90
15765;DHT22;7983;50.744;7.086;2023-05-19T00:11:27;12.20;99.90
15765;DHT22;7983;50.744;7.086;2023-05-19T00:13:55;12.20;99.90
15765;DHT22;7983;50.744;7.086;2023-05-19T00:16:23;12.20;99.90
15765;DHT22;7983;50.744;7.086;2023-05-19T00:18:49;12.20;99.90
15765;DHT22;7983;50.744;7.086;2023-05-19T00:21:16;12.10;99.90
15765;DHT22;7983;50.744;7.086;2023-05-19T00:23:41;12.10;99.90
15765;DHT22;7983;50.744;7.086;2023-05-19T00:26:07;12.10;99.90
15765;DHT22;7983;50.744;7.086;2023-05-19T00:28:37;12.10;99.90
15765;DHT22;7983;50.744;7.086;2023-05-19T00:31:05;12.10;99.90
15765;DHT22;7983;50.744;7.086;2023-05-19T00:33:31;12.00;99.90
15765;DHT22;7983;50.744;7.086;2023-05-19T00:36:01;12.00;99.90
15765;DHT22;7983;50.744;7.086;2023-05-19T00:38:31;11.90;99.90
15765;DHT22;7983;50.744;7.086;2023-05-19T00:40:58;11.90;99.90
15765;DHT22;7983;50.744;7.086;2023-05-19T00:43:24;11.90;99.90
15765;DHT22;7983;50.744;7.086;2023-05-19T00:45:52;11.80;99.90
15765;DHT22;7983;50.744;7.086;2023-05-19T00:48:20;11.70;99.90
15765;DHT22;7983;50.744;7.086;2023-05-19T00:50:49;11.80;99.90
15765;DHT22;7983;50.744;7.086;2023-05-19T00:53:20;11.70;99.90
15765;DHT22;7983;50.744;7.086;2023-05-19T00:55:47;11.70;99.90
15765;DHT22;7983;50.744;7.086;2023-05-19T00:58:13;11.60;99.90
15765;DHT22;7983;50.744;7.086;2023-05-19T01:00:42;11.60;99.90
15765;DHT22;7983;50.744;7.086;2023-05-19T01:03:10;11.60;99.90
15765;DHT22;7983;50.744;7.086;2023-05-19T01:05:41;11.60;99.90
15765;DHT22;7983;50.744;7.086;2023-05-19T01:08:10;11.60;99.90
15765;DHT22;7983;50.744;7.086;2023-05-19T01:10:38;11.50;99.90
15765;DHT22;7983;50.744;7.086;2023-05-19T01:13:05;11.50;99.90
15765;DHT22;7983;50.744;7.086;2023-05-19T01:18:46;11.40;99.90
15765;DHT22;7983;50.744;7.086;2023-05-19T01:21:34;11.40;99.90
15765;DHT22;7983;50.744;7.086;2023-05-19T01:27:08;11.30;99.90
15765;DHT22;7983;50.744;7.086;2023-05-19T01:32:24;11.20;99.90
15765;DHT22;7983;50.744;7.086;2023-05-19T01:34:51;11.10;99.90
15765;DHT22;7983;50.744;7.086;2023-05-19T01:37:18;11.10;99.90
15765;DHT22;7983;50.744;7.086;2023-05-19T01:39:45;11.10;99.90
15765;DHT22;7983;50.744;7.086;2023-05-19T01:42:15;11.00;99.90
15765;DHT22;7983;50.744;7.086;2023-05-19T01:44:47;11.00;99.90
15765;DHT22;7983;50.744;7.086;2023-05-19T01:47:13;10.90;99.90
15765;DHT22;7983;50.744;7.086;2023-05-19T01:49:39;10.90;99.90
15765;DHT22;7983;50.744;7.086;2023-05-19T01:52:09;10.90;99.90
15765;DHT22;7983;50.744;7.086;2023-05-19T01:54:37;10.80;99.90
15765;DHT22;7983;50.744;7.086;2023-05-19T02:10:57;10.60;99.90
15765;DHT22;7983;50.744;7.086;2023-05-19T02:13:30;10.60;99.90
15765;DHT22;7983;50.744;7.086;2023-05-19T02:16:04;10.60;99.90
15765;DHT22;7983;50.744;7.086;2023-05-19T02:18:32;10.50;99.90
15765;DHT22;7983;50.744;7.086;2023-05-19T02:20:58;10.50;99.90
15765;DHT22;7983;50.744;7.086;2023-05-19T02:23:23;10.50;99.90
15765;DHT22;7983;50.744;7.086;2023-05-19T02:25:52;10.50;99.90
15765;DHT22;7983;50.744;7.086;2023-05-19T02:28:17;10.50;99.90
15765;DHT22;7983;50.744;7.086;2023-05-19T02:30:43;10.50;99.90
15765;DHT22;7983;50.744;7.086;2023-05-19T02:33:11;10.50;99.90
15765;DHT22;7983;50.744;7.086;2023-05-19T02:35:36;10.50;99.90
15765;DHT22;7983;50.744;7.086;2023-05-19T02:38:04;10.40;99.90
15765;DHT22;7983;50.744;7.086;2023-05-19T02:40:30;10.40;99.90
15765;DHT22;7983;50.744;7.086;2023-05-19T02:42:55;10.30;99.90
15765;DHT22;7983;50.744;7.086;2023-05-19T02:45:23;10.40;99.90
15765;DHT22;7983;50.744;7.086;2023-05-19T02:47:49;10.30;99.90
15765;DHT22;7983;50.744;7.086;2023-05-19T02:50:15;10.30;99.90
15765;DHT22;7983;50.744;7.086;2023-05-19T02:52:42;10.30;99.90
15765;DHT22;7983;50.744;7.086;2023-05-19T02:55:10;10.30;99.90
15765;DHT22;7983;50.744;7.086;2023-05-19T02:57:41;10.30;99.90
15765;DHT22;7983;50.744;7.086;2023-05-19T03:00:09;10.20;99.90
15765;DHT22;7983;50.744;7.086;2023-05-19T03:02:35;10.20;99.90
15765;DHT22;7983;50.744;7.086;2023-05-19T03:05:03;10.20;99.90
15765;DHT22;7983;50.744;7.086;2023-05-19T03:07:31;10.10;99.90
15765;DHT22;7983;50.744;7.086;2023-05-19T03:09:58;10.20;99.90
15765;DHT22;7983;50.744;7.086;2023-05-19T03:12:26;10.10;99.90
15765;DHT22;7983;50.744;7.086;2023-05-19T03:14:56;10.10;99.90
15765;DHT22;7983;50.744;7.086;2023-05-19T03:17:24;10.10;99.90
15765;DHT22;7983;50.744;7.086;2023-05-19T03:19:50;10.10;99.90
15765;DHT22;7983;50.744;7.086;2023-05-19T03:22:15;10.10;99.90
15765;DHT22;7983;50.744;7.086;2023-05-19T03:24:43;10.00;99.90
15765;DHT22;7983;50.744;7.086;2023-05-19T03:27:09;10.00;99.90
15765;DHT22;7983;50.744;7.086;2023-05-19T03:29:38;10.00;99.90
15765;DHT22;7983;50.744;7.086;2023-05-19T03:32:04;9.90;99.90
15765;DHT22;7983;50.744;7.086;2023-05-19T03:34:32;9.90;99.90
15765;DHT22;7983;50.744;7.086;2023-05-19T03:36:58;9.80;99.90
15765;DHT22;7983;50.744;7.086;2023-05-19T03:39:23;9.80;99.90
15765;DHT22;7983;50.744;7.086;2023-05-19T03:41:49;9.70;99.90
15765;DHT22;7983;50.744;7.086;2023-05-19T03:44:17;9.70;99.90
15765;DHT22;7983;50.744;7.086;2023-05-19T03:46:42;9.70;99.90
15765;DHT22;7983;50.744;7.086;2023-05-19T03:49:08;9.70;99.90
15765;DHT22;7983;50.744;7.086;2023-05-19T03:51:36;9.70;99.90
15765;DHT22;7983;50.744;7.086;2023-05-19T03:54:01;9.60;99.90
15765;DHT22;7983;50.744;7.086;2023-05-19T03:56:27;9.70;99.90
15765;DHT22;7983;50.744;7.086;2023-05-19T03:58:56;9.70;99.90
15765;DHT22;7983;50.744;7.086;2023-05-19T04:01:22;9.70;99.90
15765;DHT22;7983;50.744;7.086;2023-05-19T04:03:47;9.60;99.90
15765;DHT22;7983;50.744;7.086;2023-05-19T04:06:15;9.60;99.90
15765;DHT22;7983;50.744;7.086;2023-05-19T04:08:41;9.60;99.90
15765;DHT22;7983;50.744;7.086;2023-05-19T04:11:10;9.60;99.90
15765;DHT22;7983;50.744;7.086;2023-05-19T04:13:39;9.50;99.90
15765;DHT22;7983;50.744;7.086;2023-05-19T04:16:05;9.50;99.90
15765;DHT22;7983;50.744;7.086;2023-05-19T04:18:31;9.50;99.90
15765;DHT22;7983;50.744;7.086;2023-05-19T04:20:56;9.50;99.90
15765;DHT22;7983;50.744;7.086;2023-05-19T04:23:24;9.50;99.90
15765;DHT22;7983;50.744;7.086;2023-05-19T04:25:52;9.50;99.90
15765;DHT22;7983;50.744;7.086;2023-05-19T04:28:18;9.50;99.90
15765;DHT22;7983;50.744;7.086;2023-05-19T04:30:46;9.60;99.90
15765;DHT22;7983;50.744;7.086;2023-05-19T04:33:12;9.60;99.90
15765;DHT22;7983;50.744;7.086;2023-05-19T04:35:38;9.70;99.90
15765;DHT22;7983;50.744;7.086;2023-05-19T04:38:04;9.60;99.90
15765;DHT22;7983;50.744;7.086;2023-05-19T04:40:30;9.70;99.90
15765;DHT22;7983;50.744;7.086;2023-05-19T04:42:56;9.70;99.90
15765;DHT22;7983;50.744;7.086;2023-05-19T04:45:22;9.70;99.90
15765;DHT22;7983;50.744;7.086;2023-05-19T04:47:50;9.80;99.90
15765;DHT22;7983;50.744;7.086;2023-05-19T04:50:26;9.80;99.90
15765;DHT22;7983;50.744;7.086;2023-05-19T04:52:56;9.90;99.90
15765;DHT22;7983;50.744;7.086;2023-05-19T04:55:23;9.90;99.90
15765;DHT22;7983;50.744;7.086;2023-05-19T04:57:49;10.00;99.90
15765;DHT22;7983;50.744;7.086;2023-05-19T05:00:17;10.00;99.90
15765;DHT22;7983;50.744;7.086;2023-05-19T05:02:43;10.00;99.90
15765;DHT22;7983;50.744;7.086;2023-05-19T05:05:08;10.10;99.90
15765;DHT22;7983;50.744;7.086;2023-05-19T05:07:36;10.10;99.90
15765;DHT22;7983;50.744;7.086;2023-05-19T05:10:04;10.20;99.90
15765;DHT22;7983;50.744;7.086;2023-05-19T05:12:30;10.20;99.90
15765;DHT22;7983;50.744;7.086;2023-05-19T05:15:04;10.30;99.90
15765;DHT22;7983;50.744;7.086;2023-05-19T05:17:32;10.30;99.90
15765;DHT22;7983;50.744;7.086;2023-05-19T05:20:00;10.30;99.90
15765;DHT22;7983;50.744;7.086;2023-05-19T05:22:26;10.40;99.90
15765;DHT22;7983;50.744;7.086;2023-05-19T05:24:55;10.40;99.90
15765;DHT22;7983;50.744;7.086;2023-05-19T05:27:20;10.50;99.90
15765;DHT22;7983;50.744;7.086;2023-05-19T05:29:48;10.60;99.90
15765;DHT22;7983;50.744;7.086;2023-05-19T05:32:14;10.60;99.90
15765;DHT22;7983;50.744;7.086;2023-05-19T05:34:43;10.70;99.90
15765;DHT22;7983;50.744;7.086;2023-05-19T05:37:10;10.70;99.90
15765;DHT22;7983;50.744;7.086;2023-05-19T05:39:35;10.80;99.90
15765;DHT22;7983;50.744;7.086;2023-05-19T05:42:03;10.80;99.90
15765;DHT22;7983;50.744;7.086;2023-05-19T05:44:29;10.80;99.90
15765;DHT22;7983;50.744;7.086;2023-05-19T05:46:57;10.90;99.90
15765;DHT22;7983;50.744;7.086;2023-05-19T05:49:23;11.00;99.90
15765;DHT22;7983;50.744;7.086;2023-05-19T05:51:53;11.00;99.90
15765;DHT22;7983;50.744;7.086;2023-05-19T05:54:21;11.10;99.90
15765;DHT22;7983;50.744;7.086;2023-05-19T05:56:51;11.10;99.90
15765;DHT22;7983;50.744;7.086;2023-05-19T05:59:19;11.20;99.90
15765;DHT22;7983;50.744;7.086;2023-05-19T06:01:47;11.20;99.90
15765;DHT22;7983;50.744;7.086;2023-05-19T06:04:15;11.30;99.90
15765;DHT22;7983;50.744;7.086;2023-05-19T06:06:44;11.30;99.90
15765;DHT22;7983;50.744;7.086;2023-05-19T06:09:12;11.40;99.90
15765;DHT22;7983;50.744;7.086;2023-05-19T06:11:38;11.40;99.90
15765;DHT22;7983;50.744;7.086;2023-05-19T06:14:04;11.50;99.90
15765;DHT22;7983;50.744;7.086;2023-05-19T06:16:31;11.50;99.90
15765;DHT22;7983;50.744;7.086;2023-05-19T06:18:59;11.60;99.90
15765;DHT22;7983;50.744;7.086;2023-05-19T06:21:25;11.70;99.90
15765;DHT22;7983;50.744;7.086;2023-05-19T06:23:50;11.70;99.90
15765;DHT22;7983;50.744;7.086;2023-05-19T06:26:21;11.80;99.90
15765;DHT22;7983;50.744;7.086;2023-05-19T06:28:47;11.80;99.90
15765;DHT22;7983;50.744;7.086;2023-05-19T06:31:14;12.00;99.90
15765;DHT22;7983;50.744;7.086;2023-05-19T06:33:40;12.00;99.90
15765;DHT22;7983;50.744;7.086;2023-05-19T06:36:06;12.00;99.90
15765;DHT22;7983;50.744;7.086;2023-05-19T06:38:36;12.10;99.90
15765;DHT22;7983;50.744;7.086;2023-05-19T06:41:07;12.20;99.90
15765;DHT22;7983;50.744;7.086;2023-05-19T06:43:32;12.30;99.90
15765;DHT22;7983;50.744;7.086;2023-05-19T06:45:58;12.30;99.90
15765;DHT22;7983;50.744;7.086;2023-05-19T06:48:25;12.30;99.90
15765;DHT22;7983;50.744;7.086;2023-05-19T06:50:51;12.50;99.90
15765;DHT22;7983;50.744;7.086;2023-05-19T06:53:19;12.50;99.90
15765;DHT22;7983;50.744;7.086;2023-05-19T06:55:45;12.50;99.90
15765;DHT22;7983;50.744;7.086;2023-05-19T06:58:14;12.60;99.90
15765;DHT22;7983;50.744;7.086;2023-05-19T07:00:42;12.70;99.90
15765;DHT22;7983;50.744;7.086;2023-05-19T07:03:08;12.70;99.90
15765;DHT22;7983;50.744;7.086;2023-05-19T07:05:36;12.80;99.90
15765;DHT22;7983;50.744;7.086;2023-05-19T07:08:04;12.80;99.90
15765;DHT22;7983;50.744;7.086;2023-05-19T07:10:33;13.00;99.90
15765;DHT22;7983;50.744;7.086;2023-05-19T07:12:58;13.00;99.90
15765;DHT22;7983;50.744;7.086;2023-05-19T07:15:29;13.10;99.90
15765;DHT22;7983;50.744;7.086;2023-05-19T07:17:57;13.10;99.90
15765;DHT22;7983;50.744;7.086;2023-05-19T07:20:22;13.10;99.90
15765;DHT22;7983;50.744;7.086;2023-05-19T07:22:48;13.20;99.90
15765;DHT22;7983;50.744;7.086;2023-05-19T07:25:16;13.30;99.90
15765;DHT22;7983;50.744;7.086;2023-05-19T07:27:41;13.40;99.90
15765;DHT22;7983;50.744;7.086;2023-05-19T07:30:07;13.40;99.90
15765;DHT22;7983;50.744;7.086;2023-05-19T07:32:35;13.50;99.90
15765;DHT22;7983;50.744;7.086;2023-05-19T07:35:01;13.50;99.90
15765;DHT22;7983;50.744;7.086;2023-05-19T07:37:27;13.60;99.90
15765;DHT22;7983;50.744;7.086;2023-05-19T07:39:55;13.70;99.90
15765;DHT22;7983;50.744;7.086;2023-05-19T07:42:20;13.70;99.90
15765;DHT22;7983;50.744;7.086;2023-05-19T07:44:48;13.80;99.90
15765;DHT22;7983;50.744;7.086;2023-05-19T07:47:14;13.80;99.90
15765;DHT22;7983;50.744;7.086;2023-05-19T07:49:42;13.90;99.90
15765;DHT22;7983;50.744;7.086;2023-05-19T07:52:10;14.00;99.90
15765;DHT22;7983;50.744;7.086;2023-05-19T07:54:38;14.00;99.90
15765;DHT22;7983;50.744;7.086;2023-05-19T07:57:06;14.10;99.90
15765;DHT22;7983;50.744;7.086;2023-05-19T07:59:33;14.20;99.90
15765;DHT22;7983;50.744;7.086;2023-05-19T08:02:02;14.20;99.90
15765;DHT22;7983;50.744;7.086;2023-05-19T08:04:27;14.30;99.90
15765;DHT22;7983;50.744;7.086;2023-05-19T08:06:53;14.40;99.90
15765;DHT22;7983;50.744;7.086;2023-05-19T08:09:19;14.50;99.90
15765;DHT22;7983;50.744;7.086;2023-05-19T08:11:47;14.50;99.90
15765;DHT22;7983;50.744;7.086;2023-05-19T08:14:15;14.60;99.90
15765;DHT22;7983;50.744;7.086;2023-05-19T08:16:43;14.70;99.90
15765;DHT22;7983;50.744;7.086;2023-05-19T08:19:10;14.70;99.90
15765;DHT22;7983;50.744;7.086;2023-05-19T08:21:38;14.80;99.90
15765;DHT22;7983;50.744;7.086;2023-05-19T08:24:06;14.90;99.90
15765;DHT22;7983;50.744;7.086;2023-05-19T08:26:34;14.90;99.90
15765;DHT22;7983;50.744;7.086;2023-05-19T08:29:02;15.00;99.90
15765;DHT22;7983;50.744;7.086;2023-05-19T08:31:27;15.10;99.90
15765;DHT22;7983;50.744;7.086;2023-05-19T08:33:53;15.20;99.90
15765;DHT22;7983;50.744;7.086;2023-05-19T08:36:24;15.30;99.90
15765;DHT22;7983;50.744;7.086;2023-05-19T08:38:52;15.40;99.90
15765;DHT22;7983;50.744;7.086;2023-05-19T08:41:20;15.40;99.90
15765;DHT22;7983;50.744;7.086;2023-05-19T08:43:48;15.50;99.90
15765;DHT22;7983;50.744;7.086;2023-05-19T08:46:15;15.60;99.90
15765;DHT22;7983;50.744;7.086;2023-05-19T08:48:43;15.70;99.90
15765;DHT22;7983;50.744;7.086;2023-05-19T08:54:02;15.80;99.90
15765;DHT22;7983;50.744;7.086;2023-05-19T08:56:29;15.90;99.90
15765;DHT22;7983;50.744;7.086;2023-05-19T08:58:58;16.00;99.90
15765;DHT22;7983;50.744;7.086;2023-05-19T09:01:24;16.20;99.90
15765;DHT22;7983;50.744;7.086;2023-05-19T09:03:55;16.20;99.90
15765;DHT22;7983;50.744;7.086;2023-05-19T09:06:22;16.30;99.90
15765;DHT22;7983;50.744;7.086;2023-05-19T09:08:54;16.40;99.90
15765;DHT22;7983;50.744;7.086;2023-05-19T09:11:20;16.50;99.90
15765;DHT22;7983;50.744;7.086;2023-05-19T09:13:46;16.50;99.90
15765;DHT22;7983;50.744;7.086;2023-05-19T09:16:13;16.60;99.90
15765;DHT22;7983;50.744;7.086;2023-05-19T09:18:38;16.70;99.90
15765;DHT22;7983;50.744;7.086;2023-05-19T09:21:05;16.80;99.90
15765;DHT22;7983;50.744;7.086;2023-05-19T09:23:32;17.00;99.90
15765;DHT22;7983;50.744;7.086;2023-05-19T09:26:02;17.00;99.90
15765;DHT22;7983;50.744;7.086;2023-05-19T09:28:34;17.10;99.90
15765;DHT22;7983;50.744;7.086;2023-05-19T09:31:04;17.20;99.90
15765;DHT22;7983;50.744;7.086;2023-05-19T09:33:33;17.30;99.90
15765;DHT22;7983;50.744;7.086;2023-05-19T09:36:02;17.40;99.90
15765;DHT22;7983;50.744;7.086;2023-05-19T09:38:33;17.50;99.90
15765;DHT22;7983;50.744;7.086;2023-05-19T09:41:02;17.50;99.90
15765;DHT22;7983;50.744;7.086;2023-05-19T09:43:29;17.60;99.90
15765;DHT22;7983;50.744;7.086;2023-05-19T09:46:04;17.70;99.90
15765;DHT22;7983;50.744;7.086;2023-05-19T09:48:33;17.70;99.90
15765;DHT22;7983;50.744;7.086;2023-05-19T09:51:01;17.80;99.90
15765;DHT22;7983;50.744;7.086;2023-05-19T09:53:31;18.00;99.90
15765;DHT22;7983;50.744;7.086;2023-05-19T09:56:01;18.10;99.90
15765;DHT22;7983;50.744;7.086;2023-05-19T09:58:36;18.20;99.90
15765;DHT22;7983;50.744;7.086;2023-05-19T10:01:03;18.30;99.90
15765;DHT22;7983;50.744;7.086;2023-05-19T10:03:32;18.30;99.90
15765;DHT22;7983;50.744;7.086;2023-05-19T10:06:08;18.40;99.90
15765;DHT22;7983;50.744;7.086;2023-05-19T10:08:36;18.50;99.90
15765;DHT22;7983;50.744;7.086;2023-05-19T10:11:06;18.50;99.90
15765;DHT22;7983;50.744;7.086;2023-05-19T10:13:35;18.60;99.90
15765;DHT22;7983;50.744;7.086;2023-05-19T10:16:02;18.70;99.90
15765;DHT22;7983;50.744;7.086;2023-05-19T10:18:29;18.90;99.90
15765;DHT22;7983;50.744;7.086;2023-05-19T10:20:58;19.00;99.90
15765;DHT22;7983;50.744;7.086;2023-05-19T10:23:27;19.10;99.90
15765;DHT22;7983;50.744;7.086;2023-05-19T10:25:55;19.20;99.90
15765;DHT22;7983;50.744;7.086;2023-05-19T10:28:22;19.40;99.90
15765;DHT22;7983;50.744;7.086;2023-05-19T10:30:54;19.60;99.90
15765;DHT22;7983;50.744;7.086;2023-05-19T10:33:36;19.80;99.90
15765;DHT22;7983;50.744;7.086;2023-05-19T10:39:15;20.20;99.90
15765;DHT22;7983;50.744;7.086;2023-05-19T10:41:58;20.30;99.90
15765;DHT22;7983;50.744;7.086;2023-05-19T10:47:26;20.70;99.90
15765;DHT22;7983;50.744;7.086;2023-05-19T10:49:54;21.00;99.90
15765;DHT22;7983;50.744;7.086;2023-05-19T10:52:23;21.30;99.90
15765;DHT22;7983;50.744;7.086;2023-05-19T10:54:54;21.50;99.90
15765;DHT22;7983;50.744;7.086;2023-05-19T10:57:29;21.70;99.90
15765;DHT22;7983;50.744;7.086;2023-05-19T11:00:02;22.00;99.90
15765;DHT22;7983;50.744;7.086;2023-05-19T11:02:44;22.20;99.90
15765;DHT22;7983;50.744;7.086;2023-05-19T11:07:42;22.60;99.90
15765;DHT22;7983;50.744;7.086;2023-05-19T11:10:13;22.70;99.90
15765;DHT22;7983;50.744;7.086;2023-05-19T11:12:51;22.80;99.90
15765;DHT22;7983;50.744;7.086;2023-05-19T11:15:17;23.00;99.90
15765;DHT22;7983;50.744;7.086;2023-05-19T11:17:47;23.20;99.90
15765;DHT22;7983;50.744;7.086;2023-05-19T11:20:24;23.40;99.90
15765;DHT22;7983;50.744;7.086;2023-05-19T11:28:11;23.80;99.90
15765;DHT22;7983;50.744;7.086;2023-05-19T11:30:44;23.60;99.90
15765;DHT22;7983;50.744;7.086;2023-05-19T11:33:14;23.50;99.90
15765;DHT22;7983;50.744;7.086;2023-05-19T11:35:46;23.40;99.90
15765;DHT22;7983;50.744;7.086;2023-05-19T11:38:12;23.50;99.90
15765;DHT22;7983;50.744;7.086;2023-05-19T11:40:42;23.50;99.90
15765;DHT22;7983;50.744;7.086;2023-05-19T11:43:08;23.70;99.90
15765;DHT22;7983;50.744;7.086;2023-05-19T11:45:36;23.80;99.90
15765;DHT22;7983;50.744;7.086;2023-05-19T11:48:01;23.90;99.90
15765;DHT22;7983;50.744;7.086;2023-05-19T11:50:30;24.00;99.90
15765;DHT22;7983;50.744;7.086;2023-05-19T11:53:02;23.90;99.10
15765;DHT22;7983;50.744;7.086;2023-05-19T11:55:30;23.90;99.40
15765;DHT22;7983;50.744;7.086;2023-05-19T11:58:00;23.80;99.10
15765;DHT22;7983;50.744;7.086;2023-05-19T12:00:27;23.80;97.40
15765;DHT22;7983;50.744;7.086;2023-05-19T12:02:54;23.80;98.50
15765;DHT22;7983;50.744;7.086;2023-05-19T12:05:24;23.90;98.40
15765;DHT22;7983;50.744;7.086;2023-05-19T12:07:52;23.90;97.20
15765;DHT22;7983;50.744;7.086;2023-05-19T12:10:29;24.10;98.30
15765;DHT22;7983;50.744;7.086;2023-05-19T12:12:56;24.10;94.90
15765;DHT22;7983;50.744;7.086;2023-05-19T12:15:24;24.20;97.70
15765;DHT22;7983;50.744;7.086;2023-05-19T12:17:56;24.20;97.00
15765;DHT22;7983;50.744;7.086;2023-05-19T12:20:26;24.30;95.80
15765;DHT22;7983;50.744;7.086;2023-05-19T12:22:59;24.40;96.30
15765;DHT22;7983;50.744;7.086;2023-05-19T12:25:26;24.70;96.90
15765;DHT22;7983;50.744;7.086;2023-05-19T12:27:59;24.80;97.80
15765;DHT22;7983;50.744;7.086;2023-05-19T12:30:26;25.00;93.10
15765;DHT22;7983;50.744;7.086;2023-05-19T12:32:54;25.20;95.00
15765;DHT22;7983;50.744;7.086;2023-05-19T12:35:25;25.30;95.40
15765;DHT22;7983;50.744;7.086;2023-05-19T12:37:51;25.40;93.30
15765;DHT22;7983;50.744;7.086;2023-05-19T12:40:17;25.60;94.80
15765;DHT22;7983;50.744;7.086;2023-05-19T12:42:48;25.70;94.30
15765;DHT22;7983;50.744;7.086;2023-05-19T12:45:20;25.80;93.20
15765;DHT22;7983;50.744;7.086;2023-05-19T12:47:47;25.90;92.20
15765;DHT22;7983;50.744;7.086;2023-05-19T12:50:13;26.00;92.60
15765;DHT22;7983;50.744;7.086;2023-05-19T12:52:46;26.10;92.50
15765;DHT22;7983;50.744;7.086;2023-05-19T12:55:15;26.20;91.50
15765;DHT22;7983;50.744;7.086;2023-05-19T12:57:43;26.30;92.00
15765;DHT22;7983;50.744;7.086;2023-05-19T13:00:16;26.30;91.10
15765;DHT22;7983;50.744;7.086;2023-05-19T13:03:06;26.30;85.10
15765;DHT22;7983;50.744;7.086;2023-05-19T13:05:38;26.30;82.20
15765;DHT22;7983;50.744;7.086;2023-05-19T13:10:34;26.40;86.50
15765;DHT22;7983;50.744;7.086;2023-05-19T13:13:03;26.40;84.90
15765;DHT22;7983;50.744;7.086;2023-05-19T13:15:39;26.40;84.30
15765;DHT22;7983;50.744;7.086;2023-05-19T13:18:11;26.40;79.30
15765;DHT22;7983;50.744;7.086;2023-05-19T13:20:40;26.40;78.10
15765;DHT22;7983;50.744;7.086;2023-05-19T13:23:09;26.40;81.70
15765;DHT22;7983;50.744;7.086;2023-05-19T13:25:35;26.40;81.60
15765;DHT22;7983;50.744;7.086;2023-05-19T13:28:02;26.50;80.40
15765;DHT22;7983;50.744;7.086;2023-05-19T13:30:32;26.60;81.00
15765;DHT22;7983;50.744;7.086;2023-05-19T13:32:58;26.70;75.00
15765;DHT22;7983;50.744;7.086;2023-05-19T13:35:23;26.70;76.80
15765;DHT22;7983;50.744;7.086;2023-05-19T13:37:49;26.80;76.80
15765;DHT22;7983;50.744;7.086;2023-05-19T13:40:15;26.80;77.10
15765;DHT22;7983;50.744;7.086;2023-05-19T13:42:42;26.90;76.30
15765;DHT22;7983;50.744;7.086;2023-05-19T13:45:10;26.90;76.50
15765;DHT22;7983;50.744;7.086;2023-05-19T13:47:36;26.90;76.20
15765;DHT22;7983;50.744;7.086;2023-05-19T13:50:03;26.90;76.50
15765;DHT22;7983;50.744;7.086;2023-05-19T13:52:31;26.90;75.90
15765;DHT22;7983;50.744;7.086;2023-05-19T13:54:57;27.00;76.40
15765;DHT22;7983;50.744;7.086;2023-05-19T13:57:22;27.10;76.40
15765;DHT22;7983;50.744;7.086;2023-05-19T13:59:53;27.20;75.40
15765;DHT22;7983;50.744;7.086;2023-05-19T14:02:19;27.40;74.40
15765;DHT22;7983;50.744;7.086;2023-05-19T14:04:45;27.50;73.40
15765;DHT22;7983;50.744;7.086;2023-05-19T14:07:11;27.60;72.90
15765;DHT22;7983;50.744;7.086;2023-05-19T14:09:37;27.60;71.50
15765;DHT22;7983;50.744;7.086;2023-05-19T14:12:05;27.60;71.90
15765;DHT22;7983;50.744;7.086;2023-05-19T14:14:31;27.60;69.30
15765;DHT22;7983;50.744;7.086;2023-05-19T14:17:01;27.60;69.20
15765;DHT22;7983;50.744;7.086;2023-05-19T14:19:27;27.70;69.60
15765;DHT22;7983;50.744;7.086;2023-05-19T14:22:00;27.70;68.90
15765;DHT22;7983;50.744;7.086;2023-05-19T14:24:25;27.60;68.90
15765;DHT22;7983;50.744;7.086;2023-05-19T14:26:52;27.60;69.30
15765;DHT22;7983;50.744;7.086;2023-05-19T14:29:20;27.50;67.80
15765;DHT22;7983;50.744;7.086;2023-05-19T14:31:46;27.40;66.60
15765;DHT22;7983;50.744;7.086;2023-05-19T14:34:14;27.20;65.40
15765;DHT22;7983;50.744;7.086;2023-05-19T14:36:42;26.90;65.10
15765;DHT22;7983;50.744;7.086;2023-05-19T14:39:08;26.70;67.00
15765;DHT22;7983;50.744;7.086;2023-05-19T14:41:36;26.70;67.70
15765;DHT22;7983;50.744;7.086;2023-05-19T14:44:04;26.70;67.60
15765;DHT22;7983;50.744;7.086;2023-05-19T14:46:30;26.80;68.30
15765;DHT22;7983;50.744;7.086;2023-05-19T14:48:55;26.90;68.80
15765;DHT22;7983;50.744;7.086;2023-05-19T14:51:21;27.10;69.50
15765;DHT22;7983;50.744;7.086;2023-05-19T14:53:47;27.30;68.50
15765;DHT22;7983;50.744;7.086;2023-05-19T14:56:17;27.60;67.70
15765;DHT22;7983;50.744;7.086;2023-05-19T14:58:45;27.80;67.40
15765;DHT22;7983;50.744;7.086;2023-05-19T15:01:12;28.00;67.30
15765;DHT22;7983;50.744;7.086;2023-05-19T15:03:38;28.10;68.30
15765;DHT22;7983;50.744;7.086;2023-05-19T15:06:10;28.10;67.00
15765;DHT22;7983;50.744;7.086;2023-05-19T15:08:36;28.10;65.50
15765;DHT22;7983;50.744;7.086;2023-05-19T15:11:04;28.10;66.20
15765;DHT22;7983;50.744;7.086;2023-05-19T15:13:30;28.00;63.00
15765;DHT22;7983;50.744;7.086;2023-05-19T15:15:55;27.90;64.80
15765;DHT22;7983;50.744;7.086;2023-05-19T15:18:21;27.90;64.80
15765;DHT22;7983;50.744;7.086;2023-05-19T15:20:49;27.90;65.30
15765;DHT22;7983;50.744;7.086;2023-05-19T15:23:17;28.00;65.50
15765;DHT22;7983;50.744;7.086;2023-05-19T15:25:42;28.10;65.80
15765;DHT22;7983;50.744;7.086;2023-05-19T15:28:10;28.20;64.80
15765;DHT22;7983;50.744;7.086;2023-05-19T15:30:36;28.30;65.20
15765;DHT22;7983;50.744;7.086;2023-05-19T15:33:02;28.40;64.70
15765;DHT22;7983;50.744;7.086;2023-05-19T15:35:30;28.50;64.20
15765;DHT22;7983;50.744;7.086;2023-05-19T15:37:56;28.60;62.30
15765;DHT22;7983;50.744;7.086;2023-05-19T15:40:22;28.50;61.60
15765;DHT22;7983;50.744;7.086;2023-05-19T15:42:48;28.50;61.70
15765;DHT22;7983;50.744;7.086;2023-05-19T15:45:16;28.50;60.50
15765;DHT22;7983;50.744;7.086;2023-05-19T15:47:44;28.40;59.80
15765;DHT22;7983;50.744;7.086;2023-05-19T15:50:09;28.40;59.90
15765;DHT22;7983;50.744;7.086;2023-05-19T15:52:35;28.20;59.70
15765;DHT22;7983;50.744;7.086;2023-05-19T15:55:03;28.10;58.90
15765;DHT22;7983;50.744;7.086;2023-05-19T15:57:29;27.90;58.10
15765;DHT22;7983;50.744;7.086;2023-05-19T15:59:55;27.70;58.50
15765;DHT22;7983;50.744;7.086;2023-05-19T16:02:20;27.40;58.70
15765;DHT22;7983;50.744;7.086;2023-05-19T16:04:46;27.20;59.30
15765;DHT22;7983;50.744;7.086;2023-05-19T16:07:11;27.10;59.50
15765;DHT22;7983;50.744;7.086;2023-05-19T16:09:39;27.00;59.30
15765;DHT22;7983;50.744;7.086;2023-05-19T16:12:05;26.80;58.70
15765;DHT22;7983;50.744;7.086;2023-05-19T16:14:31;26.70;59.30
15765;DHT22;7983;50.744;7.086;2023-05-19T16:17:03;26.60;58.80
15765;DHT22;7983;50.744;7.086;2023-05-19T16:19:31;26.40;59.10
15765;DHT22;7983;50.744;7.086;2023-05-19T16:21:57;26.20;58.70
15765;DHT22;7983;50.744;7.086;2023-05-19T16:24:25;26.10;59.10
15765;DHT22;7983;50.744;7.086;2023-05-19T16:26:53;25.90;58.80
15765;DHT22;7983;50.744;7.086;2023-05-19T16:29:23;25.70;59.10
15765;DHT22;7983;50.744;7.086;2023-05-19T16:31:53;25.50;59.40
15765;DHT22;7983;50.744;7.086;2023-05-19T16:34:23;25.40;59.60